createdAt,value
2022-11-08T00:00:24.854Z,100.00
2022-11-08T00:10:55.708Z,100.00
2022-11-08T00:31:21.585Z,100.00
2022-11-08T00:41:23.279Z,100.00
2022-11-08T00:51:24.935Z,100.00
2022-11-08T01:01:27.193Z,100.00
2022-11-08T01:11:29.008Z,100.00
2022-11-08T01:21:30.723Z,100.00
2022-11-08T01:31:32.894Z,100.00
2022-11-08T01:41:34.542Z,100.00
2022-11-08T01:51:42.116Z,100.00
2022-11-08T02:01:44.740Z,100.00
2022-11-08T02:11:48.345Z,100.00
2022-11-08T02:21:57.686Z,100.00
2022-11-08T02:32:01.293Z,100.00
2022-11-08T02:42:03.254Z,100.00
2022-11-08T02:52:05.239Z,100.00
2022-11-08T03:02:07.165Z,100.00
2022-11-08T03:12:08.945Z,100.00
2022-11-08T03:22:10.664Z,100.00
2022-11-08T03:32:13.582Z,100.00
2022-11-08T03:42:15.297Z,100.00
2022-11-08T03:52:16.969Z,100.00
2022-11-08T04:02:18.921Z,100.00
2022-11-08T04:12:39.464Z,100.00
2022-11-08T04:22:41.253Z,100.00
2022-11-08T04:32:42.882Z,100.00
2022-11-08T04:42:44.605Z,100.00
2022-11-08T04:52:53.949Z,100.00
2022-11-08T05:02:55.596Z,100.00
2022-11-08T05:12:57.285Z,100.00
2022-11-08T05:23:21.559Z,100.00
2022-11-08T05:33:23.603Z,100.00
2022-11-08T05:43:25.202Z,100.00
2022-11-08T05:53:27.526Z,100.00
2022-11-08T06:03:30.259Z,100.00
2022-11-08T06:13:33.838Z,100.00
2022-11-08T06:23:35.943Z,100.00
2022-11-08T06:33:37.722Z,100.00
2022-11-08T06:43:39.486Z,100.00
2022-11-08T06:53:41.491Z,100.00
2022-11-08T07:03:43.173Z,100.00
2022-11-08T07:13:48.010Z,100.00
2022-11-08T07:23:49.713Z,100.00
2022-11-08T07:33:52.283Z,100.00
2022-11-08T07:43:54.274Z,100.00
2022-11-08T07:54:00.333Z,100.00
2022-11-08T08:04:04.945Z,100.00
2022-11-08T08:14:06.526Z,100.00
2022-11-08T08:24:08.334Z,100.00
2022-11-08T08:34:10.079Z,100.00
2022-11-08T08:44:11.843Z,100.00
2022-11-08T08:54:14.723Z,100.00
2022-11-08T09:04:16.396Z,100.00
2022-11-08T09:14:18.040Z,100.00
2022-11-08T09:24:19.702Z,100.00
2022-11-08T09:34:21.870Z,100.00
2022-11-08T09:44:55.091Z,100.00
2022-11-08T09:55:26.012Z,99.57
2022-11-08T10:05:38.599Z,97.55
2022-11-08T10:15:43.578Z,96.24
2022-11-08T10:25:52.569Z,95.33
2022-11-08T10:36:02.502Z,94.01
2022-11-08T10:46:04.801Z,92.67
2022-11-08T10:56:06.486Z,91.48
2022-11-08T11:06:29.373Z,89.97
2022-11-08T11:16:31.153Z,88.36
2022-11-08T11:26:35.450Z,87.65
2022-11-08T11:36:37.387Z,86.90
2022-11-08T11:46:51.131Z,85.87
2022-11-08T11:57:07.849Z,85.19
2022-11-08T12:07:14.554Z,84.23
2022-11-08T12:17:34.899Z,83.28
2022-11-08T12:28:05.125Z,82.91
2022-11-08T12:38:28.814Z,82.63
2022-11-08T12:48:49.365Z,82.08
2022-11-08T12:58:53.789Z,81.66
2022-11-08T13:09:11.613Z,81.48
2022-11-08T13:19:49.659Z,81.32
2022-11-08T13:29:52.723Z,81.09
2022-11-08T13:40:17.129Z,81.35
2022-11-08T13:50:33.192Z,81.56
2022-11-08T14:00:45.402Z,81.49
2022-11-08T14:10:59.031Z,81.90
2022-11-08T14:21:08.647Z,82.38
2022-11-08T14:31:33.835Z,82.77
2022-11-08T14:41:35.754Z,82.87
2022-11-08T14:51:37.438Z,83.26
2022-11-08T15:01:43.274Z,84.37
2022-11-08T15:11:52.726Z,85.49
2022-11-08T15:21:56.951Z,86.47
2022-11-08T15:32:01.661Z,87.86
2022-11-08T15:42:12.942Z,89.54
2022-11-08T15:52:19.167Z,90.00
2022-11-08T16:02:24.469Z,91.00
2022-11-08T16:12:26.141Z,92.20
2022-11-08T16:22:27.776Z,93.29
2022-11-08T16:32:29.950Z,93.41
2022-11-08T16:42:32.081Z,94.45
2022-11-08T16:52:33.708Z,94.90
2022-11-08T17:02:37.673Z,95.14
2022-11-08T17:12:39.282Z,95.62
2022-11-08T17:22:42.268Z,96.26
2022-11-08T17:32:43.998Z,96.77
2022-11-08T17:42:46.108Z,96.91
2022-11-08T17:52:47.747Z,97.18
2022-11-08T18:02:49.475Z,98.40
2022-11-08T18:12:51.232Z,99.04
2022-11-08T18:22:52.993Z,99.16
2022-11-08T18:32:54.657Z,99.91
2022-11-08T18:42:56.288Z,99.83
2022-11-08T18:53:03.123Z,100.00
2022-11-08T19:03:05.660Z,100.00
2022-11-08T19:13:07.302Z,100.00
2022-11-08T19:23:09.010Z,100.00
2022-11-08T19:33:10.608Z,100.00
2022-11-08T19:43:16.599Z,100.00
2022-11-08T19:53:18.466Z,100.00
2022-11-08T20:03:20.275Z,100.00
2022-11-08T20:13:22.068Z,100.00
2022-11-08T20:23:24.865Z,100.00
2022-11-08T20:33:27.669Z,100.00
2022-11-08T20:43:29.717Z,100.00
2022-11-08T20:53:34.007Z,100.00
2022-11-08T21:03:35.879Z,100.00
2022-11-08T21:13:40.075Z,100.00
2022-11-08T21:23:43.779Z,100.00
2022-11-08T21:33:45.607Z,100.00
2022-11-08T21:43:47.428Z,100.00
2022-11-08T21:53:57.160Z,100.00
2022-11-08T22:03:59.377Z,100.00
2022-11-08T22:14:01.113Z,100.00
2022-11-08T22:24:07.111Z,100.00
2022-11-08T22:34:09.616Z,100.00
2022-11-08T22:44:12.735Z,100.00
2022-11-08T22:54:14.846Z,100.00
2022-11-08T23:04:16.743Z,100.00
2022-11-08T23:14:37.911Z,100.00
2022-11-08T23:24:41.753Z,100.00
2022-11-08T23:34:43.351Z,100.00
2022-11-08T23:44:44.990Z,100.00
2022-11-08T23:54:46.673Z,100.00
